Flight Track Log - Related Links

Times and Time Zones

All times are in EDT time to prevent confusion due to time zone crossing. See the SWA127 flight status page for this flight to view local times or setup timezone preferences in your user account.

Time Position Orientation Groundspeed Altitude Reporting Facility
EDT Latitude Longitude Course Direction KTS km/h feet Rate Location/Type
Thu 12:06:28 PM 29.6003 -95.2500 159° South 187 346 1.900  Level Houston Center
Thu 12:06:45 PM 29.5906 -95.2486 173° South 195 360 2.600 2.557 Climbing Houston Center
Thu 12:07:29 PM 29.5483 -95.2325 162° South 208 385 4.500 2.032 Climbing Houston Center
Thu 12:07:47 PM 29.5361 -95.2319 178° South 211 391 4.700 2.400 Climbing Houston Center
Thu 12:08:49 PM 29.4731 -95.2614 202° Southwest 243 451 7.700 2.952 Climbing Houston Center
Thu 12:09:51 PM 29.4072 -95.2922 202° Southwest 252 467 10.800 2.661 Climbing Houston Center
Thu 12:10:53 PM 29.3053 -95.3400 202° Southwest 324 600 13.200 2.710 Climbing Houston Center
Thu 12:11:55 PM 29.2233 -95.3925 209° Southwest 333 616 16.400 2.855 Climbing Houston Center
Thu 12:12:57 PM 29.1467 -95.4569 216° Southwest 340 629 19.100 2.208 Climbing Houston Center
Thu 12:14:00 PM 29.0661 -95.5200 214° Southwest 348 644 21.000 2.208 Climbing Houston Center
Thu 12:15:02 PM 28.9817 -95.5881 215° Southwest 365 676 23.700 2.468 Climbing Houston Center
Thu 12:16:04 PM 28.9025 -95.6517 215° Southwest 353 653 26.100 2.032 Climbing Houston Center
Thu 12:17:06 PM 28.8061 -95.7283 215° Southwest 351 650 27.900 1.452 Climbing Houston Center
Thu 12:18:08 PM 28.7203 -95.7947 214° Southwest 366 678 29.100 1.113 Climbing Houston Center
Thu 12:19:10 PM 28.6322 -95.8658 215° Southwest 381 705 30.200 1.161 Climbing Houston Center
Thu 12:20:12 PM 28.5411 -95.9381 215° Southwest 394 729 31.500 1.548 Climbing Houston Center
Thu 12:21:14 PM 28.4386 -96.0181 214° Southwest 398 737 33.400 1.584 Climbing Houston Center
Thu 12:22:17 PM 28.3478 -96.0889 214° Southwest 395 732 34.800 1.248 Climbing Houston Center
Thu 12:23:19 PM 28.2581 -96.1606 215° Southwest 393 727 36.000 581 Climbing Houston Center
Thu 12:24:21 PM 28.1694 -96.2314 215° Southwest 390 723 36.000  Level Houston Center
Thu 12:25:23 PM 28.0792 -96.2994 214° Southwest 389 721 36.000  Level Houston Center
Thu 12:26:25 PM 27.9736 -96.3825 215° Southwest 385 713 36.000  Level Houston Center
Thu 12:27:27 PM 27.8864 -96.4497 214° Southwest 383 710 36.000  Level Houston Center
Thu 12:28:29 PM 27.7975 -96.5192 215° Southwest 386 715 36.000  Level Houston Center
Thu 12:29:31 PM 27.7086 -96.5878 214° Southwest 386 715 36.000  Level Houston Center
Thu 12:30:34 PM 27.6194 -96.6569 215° Southwest 388 719 36.000 -720 Level Houston Center
Thu 12:31:36 PM 27.5303 -96.7267 215° Southwest 389 721 34.500 -2.710 Descending Houston Center
Thu 12:32:38 PM 27.4203 -96.8114 214° Southwest 395 732 30.400 -3.435 Descending Houston Center
Thu 12:33:40 PM 27.3222 -96.8844 214° Southwest 404 748 27.400 -2.274 Descending Houston Center
Thu 12:34:42 PM 27.2342 -96.9517 214° Southwest 392 726 25.700 -1.355 Descending Houston Center
Thu 12:35:44 PM 27.1519 -97.0081 211° Southwest 359 665 24.600 -1.355 Descending Houston Center
Thu 12:36:46 PM 27.0733 -97.0639 212° Southwest 341 631 22.900 -2.000 Descending Houston Center
Thu 12:37:23 PM 27.0125 -97.1078 213° Southwest 341 631 21.300 -2.129 Descending Houston Center
Thu 12:37:48 PM 26.9933 -97.1211 212° Southwest 340 629 20.700 -2.509 Descending Houston Center
Thu 12:38:18 PM 26.9422 -97.1575 212° Southwest 343 636 19.000 -2.381 Descending Houston Center
Thu 12:38:51 PM 26.9119 -97.1783 212° Southwest 343 636 18.200 -2.500 Descending Houston Center
Thu 12:39:18 PM 26.8581 -97.2164 212° Southwest 335 621 16.500 -2.903 Descending Houston Center
Thu 12:39:53 PM 26.8150 -97.2458 211° Southwest 330 612 15.200 -2.164 Descending Houston Center
Thu 12:40:19 PM 26.7861 -97.2683 215° Southwest 327 605 14.300 -2.129 Descending Houston Center
Thu 12:40:55 PM 26.7400 -97.2989 211° Southwest 319 591 13.000 -2.262 Descending Houston Center
Thu 12:41:20 PM 26.7094 -97.3189 210° Southwest 318 589 12.000 -2.226 Descending Houston Center
Thu 12:41:57 PM 26.6664 -97.3508 214° Southwest 314 581 10.700 -1.644 Descending Houston Center
Thu 12:42:33 PM 26.6219 -97.3825 212° Southwest 307 568 10.000 -1.258 Descending Houston Center
Thu 12:42:59 PM 26.5925 -97.4014 210° Southwest 288 533 9.400 -1.672 Descending Houston Center
Thu 12:43:34 PM 26.5572 -97.4264 212° Southwest 280 518 8.300 -1.839 Descending Houston Center
Thu 12:44:01 PM 26.5319 -97.4536 224° Southwest 276 512 7.500 -2.111 Descending Houston Center
Thu 12:44:28 PM 26.5094 -97.4892 235° Southwest 284 526 6.400 -1.645 Descending Houston Center
Thu 12:45:03 PM 26.4814 -97.5286 232° Southwest 282 523 5.800 -1.279 Descending Houston Center
Thu 12:45:29 PM 26.4603 -97.5589 232° Southwest 273 505 5.100 -1.258 Descending Houston Center
Thu 12:46:05 PM 26.4361 -97.5919 231° Southwest 265 491 4.500 -1.082 Descending Houston Center
Thu 12:46:30 PM 26.4144 -97.6211 230° Southwest 257 476 4.000 -381 Descending Houston Center
Thu 12:47:08 PM 26.3939 -97.6511 233° Southwest 249 462 4.100  Climbing Houston Center
Thu 12:47:25 PM 26.3781 -97.6728 231° Southwest 238 441 4.000 -387 Descending Houston Center
Thu 12:48:10 PM 26.3525 -97.7086 231° Southwest 231 428 3.700 -897 Descending Houston Center
Thu 12:49:12 PM 26.3131 -97.7633 231° Southwest 208 385 2.400 -823 Descending Houston Center
Thu 12:50:14 PM 26.2664 -97.7406 156° South 190 352 2.000 -726 Descending Houston Center
Thu 12:51:16 PM 26.2569 -97.6900 102° East 163 303 900 -912 Descending Houston Center
Thu 12:52:19 PM 26.2317 -97.6628 136° Southeast 135 249 100 -762 Descending Houston Center

Login

Don't have an account? Register now (free) for customized features, flight alerts, and more!